sensor_id;sensor_type;location;lat;lon;timestamp;P1;durP1;ratioP1;P2;durP2;ratioP2
59306;SDS011;47983;53.016;-2.260;2023-12-22T00:00:00;15.95;;;2.08;;
59306;SDS011;47983;53.016;-2.260;2023-12-22T00:02:31;17.20;;;2.53;;
59306;SDS011;47983;53.016;-2.260;2023-12-22T00:04:59;15.40;;;2.50;;
59306;SDS011;47983;53.016;-2.260;2023-12-22T00:07:27;11.88;;;2.08;;
59306;SDS011;47983;53.016;-2.260;2023-12-22T00:09:55;14.40;;;2.55;;
59306;SDS011;47983;53.016;-2.260;2023-12-22T00:12:25;13.10;;;1.90;;
59306;SDS011;47983;53.016;-2.260;2023-12-22T00:14:53;14.18;;;2.00;;
59306;SDS011;47983;53.016;-2.260;2023-12-22T00:17:20;19.48;;;2.65;;
59306;SDS011;47983;53.016;-2.260;2023-12-22T00:19:48;16.73;;;2.63;;
59306;SDS011;47983;53.016;-2.260;2023-12-22T00:22:16;8.80;;;1.40;;
59306;SDS011;47983;53.016;-2.260;2023-12-22T00:24:44;15.18;;;2.47;;
59306;SDS011;47983;53.016;-2.260;2023-12-22T00:27:12;9.30;;;1.63;;
59306;SDS011;47983;53.016;-2.260;2023-12-22T00:29:40;8.98;;;1.48;;
59306;SDS011;47983;53.016;-2.260;2023-12-22T00:32:07;13.90;;;3.35;;
59306;SDS011;47983;53.016;-2.260;2023-12-22T00:34:37;11.18;;;2.20;;
59306;SDS011;47983;53.016;-2.260;2023-12-22T00:37:05;15.45;;;2.35;;
59306;SDS011;47983;53.016;-2.260;2023-12-22T00:39:33;13.60;;;2.17;;
59306;SDS011;47983;53.016;-2.260;2023-12-22T00:42:00;8.35;;;1.75;;
59306;SDS011;47983;53.016;-2.260;2023-12-22T00:44:29;6.53;;;1.33;;
59306;SDS011;47983;53.016;-2.260;2023-12-22T00:47:00;11.07;;;1.45;;
59306;SDS011;47983;53.016;-2.260;2023-12-22T00:49:27;7.43;;;1.52;;
59306;SDS011;47983;53.016;-2.260;2023-12-22T00:51:55;9.38;;;2.35;;
59306;SDS011;47983;53.016;-2.260;2023-12-22T00:54:23;12.95;;;1.88;;
59306;SDS011;47983;53.016;-2.260;2023-12-22T00:56:52;9.63;;;2.17;;
59306;SDS011;47983;53.016;-2.260;2023-12-22T00:59:20;9.38;;;1.60;;
59306;SDS011;47983;53.016;-2.260;2023-12-22T01:01:47;12.05;;;1.45;;
59306;SDS011;47983;53.016;-2.260;2023-12-22T01:04:15;6.85;;;1.13;;
59306;SDS011;47983;53.016;-2.260;2023-12-22T01:06:44;6.18;;;1.10;;
59306;SDS011;47983;53.016;-2.260;2023-12-22T01:09:12;7.50;;;1.30;;
59306;SDS011;47983;53.016;-2.260;2023-12-22T01:11:41;9.30;;;1.08;;
59306;SDS011;47983;53.016;-2.260;2023-12-22T01:14:09;3.30;;;0.82;;
59306;SDS011;47983;53.016;-2.260;2023-12-22T01:16:38;3.13;;;0.50;;
59306;SDS011;47983;53.016;-2.260;2023-12-22T01:19:07;7.95;;;0.93;;
59306;SDS011;47983;53.016;-2.260;2023-12-22T01:21:34;5.57;;;0.82;;
59306;SDS011;47983;53.016;-2.260;2023-12-22T01:24:02;4.43;;;0.93;;
59306;SDS011;47983;53.016;-2.260;2023-12-22T01:26:30;3.83;;;0.65;;
59306;SDS011;47983;53.016;-2.260;2023-12-22T01:28:58;4.70;;;0.55;;
59306;SDS011;47983;53.016;-2.260;2023-12-22T01:31:26;1.45;;;0.40;;
59306;SDS011;47983;53.016;-2.260;2023-12-22T01:33:54;3.50;;;0.50;;
59306;SDS011;47983;53.016;-2.260;2023-12-22T01:36:23;3.17;;;0.30;;
59306;SDS011;47983;53.016;-2.260;2023-12-22T01:38:51;0.93;;;0.35;;
59306;SDS011;47983;53.016;-2.260;2023-12-22T01:41:18;1.83;;;0.60;;
59306;SDS011;47983;53.016;-2.260;2023-12-22T01:43:46;2.83;;;0.28;;
59306;SDS011;47983;53.016;-2.260;2023-12-22T01:46:14;1.65;;;0.40;;
59306;SDS011;47983;53.016;-2.260;2023-12-22T01:48:42;0.63;;;0.43;;
59306;SDS011;47983;53.016;-2.260;2023-12-22T01:51:11;2.55;;;0.15;;
59306;SDS011;47983;53.016;-2.260;2023-12-22T01:53:39;0.73;;;0.10;;
59306;SDS011;47983;53.016;-2.260;2023-12-22T01:56:07;1.67;;;0.30;;
59306;SDS011;47983;53.016;-2.260;2023-12-22T01:58:36;0.35;;;0.25;;
59306;SDS011;47983;53.016;-2.260;2023-12-22T02:01:16;0.38;;;0.25;;
59306;SDS011;47983;53.016;-2.260;2023-12-22T02:03:44;0.30;;;0.20;;
59306;SDS011;47983;53.016;-2.260;2023-12-22T02:06:12;0.55;;;0.35;;
59306;SDS011;47983;53.016;-2.260;2023-12-22T02:08:40;0.20;;;0.20;;
59306;SDS011;47983;53.016;-2.260;2023-12-22T02:11:08;0.80;;;0.30;;
59306;SDS011;47983;53.016;-2.260;2023-12-22T02:13:36;0.68;;;0.47;;
59306;SDS011;47983;53.016;-2.260;2023-12-22T02:16:05;0.32;;;0.20;;
59306;SDS011;47983;53.016;-2.260;2023-12-22T02:18:56;3.65;;;0.47;;
59306;SDS011;47983;53.016;-2.260;2023-12-22T02:21:32;2.65;;;0.50;;
59306;SDS011;47983;53.016;-2.260;2023-12-22T02:24:00;2.75;;;0.40;;
59306;SDS011;47983;53.016;-2.260;2023-12-22T02:26:32;3.13;;;0.50;;
59306;SDS011;47983;53.016;-2.260;2023-12-22T02:29:03;0.57;;;0.50;;
59306;SDS011;47983;53.016;-2.260;2023-12-22T02:31:36;0.65;;;0.40;;
59306;SDS011;47983;53.016;-2.260;2023-12-22T02:34:12;0.37;;;0.30;;
59306;SDS011;47983;53.016;-2.260;2023-12-22T02:36:46;3.65;;;0.60;;
59306;SDS011;47983;53.016;-2.260;2023-12-22T02:39:16;3.95;;;0.75;;
59306;SDS011;47983;53.016;-2.260;2023-12-22T02:41:46;2.47;;;0.50;;
59306;SDS011;47983;53.016;-2.260;2023-12-22T02:44:14;1.85;;;0.30;;
59306;SDS011;47983;53.016;-2.260;2023-12-22T02:46:42;0.90;;;0.40;;
59306;SDS011;47983;53.016;-2.260;2023-12-22T02:49:10;0.68;;;0.30;;
59306;SDS011;47983;53.016;-2.260;2023-12-22T02:51:40;3.88;;;0.40;;
59306;SDS011;47983;53.016;-2.260;2023-12-22T02:54:08;1.58;;;0.38;;
59306;SDS011;47983;53.016;-2.260;2023-12-22T02:56:36;3.28;;;0.40;;
59306;SDS011;47983;53.016;-2.260;2023-12-22T02:59:04;1.85;;;0.40;;
59306;SDS011;47983;53.016;-2.260;2023-12-22T03:01:31;2.40;;;0.32;;
59306;SDS011;47983;53.016;-2.260;2023-12-22T03:04:00;2.63;;;0.30;;
59306;SDS011;47983;53.016;-2.260;2023-12-22T03:06:28;1.65;;;0.50;;
59306;SDS011;47983;53.016;-2.260;2023-12-22T03:08:55;3.15;;;0.52;;
59306;SDS011;47983;53.016;-2.260;2023-12-22T03:11:24;2.65;;;0.30;;
59306;SDS011;47983;53.016;-2.260;2023-12-22T03:13:53;2.50;;;0.50;;
59306;SDS011;47983;53.016;-2.260;2023-12-22T03:16:20;4.38;;;0.40;;
59306;SDS011;47983;53.016;-2.260;2023-12-22T03:18:48;2.58;;;0.40;;
59306;SDS011;47983;53.016;-2.260;2023-12-22T03:21:17;1.35;;;0.70;;
59306;SDS011;47983;53.016;-2.260;2023-12-22T03:26:13;3.05;;;0.35;;
59306;SDS011;47983;53.016;-2.260;2023-12-22T03:28:42;5.05;;;0.52;;
59306;SDS011;47983;53.016;-2.260;2023-12-22T03:31:10;3.80;;;0.70;;
59306;SDS011;47983;53.016;-2.260;2023-12-22T03:33:38;3.08;;;0.50;;
59306;SDS011;47983;53.016;-2.260;2023-12-22T03:36:05;2.00;;;0.22;;
59306;SDS011;47983;53.016;-2.260;2023-12-22T03:38:33;6.18;;;1.35;;
59306;SDS011;47983;53.016;-2.260;2023-12-22T03:41:01;4.00;;;0.40;;
59306;SDS011;47983;53.016;-2.260;2023-12-22T03:43:29;4.60;;;0.65;;
59306;SDS011;47983;53.016;-2.260;2023-12-22T03:45:59;3.65;;;0.60;;
59306;SDS011;47983;53.016;-2.260;2023-12-22T03:48:27;3.53;;;0.47;;
59306;SDS011;47983;53.016;-2.260;2023-12-22T03:50:54;3.53;;;1.08;;
59306;SDS011;47983;53.016;-2.260;2023-12-22T03:53:22;3.10;;;0.57;;
59306;SDS011;47983;53.016;-2.260;2023-12-22T03:55:50;3.25;;;1.08;;
59306;SDS011;47983;53.016;-2.260;2023-12-22T03:58:18;3.13;;;0.52;;
59306;SDS011;47983;53.016;-2.260;2023-12-22T04:00:45;0.70;;;0.25;;
59306;SDS011;47983;53.016;-2.260;2023-12-22T04:03:14;3.15;;;0.40;;
59306;SDS011;47983;53.016;-2.260;2023-12-22T04:05:43;6.32;;;0.60;;
59306;SDS011;47983;53.016;-2.260;2023-12-22T04:08:12;3.83;;;0.77;;
59306;SDS011;47983;53.016;-2.260;2023-12-22T04:10:39;3.92;;;0.45;;
59306;SDS011;47983;53.016;-2.260;2023-12-22T04:13:07;3.92;;;0.32;;
59306;SDS011;47983;53.016;-2.260;2023-12-22T04:15:36;8.32;;;1.38;;
59306;SDS011;47983;53.016;-2.260;2023-12-22T04:18:04;1.85;;;0.30;;
59306;SDS011;47983;53.016;-2.260;2023-12-22T04:20:32;3.58;;;0.60;;
59306;SDS011;47983;53.016;-2.260;2023-12-22T04:23:00;2.28;;;0.25;;
59306;SDS011;47983;53.016;-2.260;2023-12-22T04:25:28;7.10;;;1.00;;
59306;SDS011;47983;53.016;-2.260;2023-12-22T04:27:56;2.83;;;0.50;;
59306;SDS011;47983;53.016;-2.260;2023-12-22T04:30:24;7.97;;;1.05;;
59306;SDS011;47983;53.016;-2.260;2023-12-22T04:32:58;3.90;;;1.55;;
59306;SDS011;47983;53.016;-2.260;2023-12-22T04:35:26;2.13;;;0.30;;
59306;SDS011;47983;53.016;-2.260;2023-12-22T04:37:54;1.17;;;0.40;;
59306;SDS011;47983;53.016;-2.260;2023-12-22T04:40:21;2.08;;;0.30;;
59306;SDS011;47983;53.016;-2.260;2023-12-22T04:42:49;2.70;;;0.32;;
59306;SDS011;47983;53.016;-2.260;2023-12-22T04:45:20;1.00;;;0.32;;
59306;SDS011;47983;53.016;-2.260;2023-12-22T04:47:48;3.80;;;0.55;;
59306;SDS011;47983;53.016;-2.260;2023-12-22T04:50:17;1.07;;;0.73;;
59306;SDS011;47983;53.016;-2.260;2023-12-22T04:52:46;2.83;;;0.20;;
59306;SDS011;47983;53.016;-2.260;2023-12-22T04:55:14;4.07;;;0.28;;
59306;SDS011;47983;53.016;-2.260;2023-12-22T04:57:42;3.40;;;0.30;;
59306;SDS011;47983;53.016;-2.260;2023-12-22T05:00:10;0.60;;;0.40;;
59306;SDS011;47983;53.016;-2.260;2023-12-22T05:02:38;3.30;;;0.20;;
59306;SDS011;47983;53.016;-2.260;2023-12-22T05:05:06;3.38;;;0.32;;
59306;SDS011;47983;53.016;-2.260;2023-12-22T05:07:35;4.22;;;0.30;;
59306;SDS011;47983;53.016;-2.260;2023-12-22T05:10:03;5.75;;;0.70;;
59306;SDS011;47983;53.016;-2.260;2023-12-22T05:12:31;3.30;;;0.32;;
59306;SDS011;47983;53.016;-2.260;2023-12-22T05:15:00;2.28;;;0.47;;
59306;SDS011;47983;53.016;-2.260;2023-12-22T05:17:28;4.78;;;0.28;;
59306;SDS011;47983;53.016;-2.260;2023-12-22T05:19:56;2.83;;;0.63;;
59306;SDS011;47983;53.016;-2.260;2023-12-22T05:22:23;1.98;;;0.57;;
59306;SDS011;47983;53.016;-2.260;2023-12-22T05:24:51;4.47;;;0.70;;
59306;SDS011;47983;53.016;-2.260;2023-12-22T05:27:19;3.08;;;0.50;;
59306;SDS011;47983;53.016;-2.260;2023-12-22T05:29:47;2.45;;;0.40;;
59306;SDS011;47983;53.016;-2.260;2023-12-22T05:32:15;1.75;;;0.22;;
59306;SDS011;47983;53.016;-2.260;2023-12-22T05:34:42;5.50;;;1.30;;
59306;SDS011;47983;53.016;-2.260;2023-12-22T05:37:11;2.22;;;0.25;;
59306;SDS011;47983;53.016;-2.260;2023-12-22T05:39:39;3.90;;;0.55;;
59306;SDS011;47983;53.016;-2.260;2023-12-22T05:42:07;2.40;;;0.38;;
59306;SDS011;47983;53.016;-2.260;2023-12-22T05:44:34;3.40;;;0.20;;
59306;SDS011;47983;53.016;-2.260;2023-12-22T05:47:03;0.95;;;0.03;;
59306;SDS011;47983;53.016;-2.260;2023-12-22T05:49:31;1.42;;;0.30;;
59306;SDS011;47983;53.016;-2.260;2023-12-22T05:51:59;2.45;;;0.17;;
59306;SDS011;47983;53.016;-2.260;2023-12-22T05:54:27;4.90;;;0.30;;
59306;SDS011;47983;53.016;-2.260;2023-12-22T05:56:54;4.55;;;0.50;;
59306;SDS011;47983;53.016;-2.260;2023-12-22T06:04:22;2.17;;;0.50;;
59306;SDS011;47983;53.016;-2.260;2023-12-22T06:06:51;6.07;;;0.53;;
59306;SDS011;47983;53.016;-2.260;2023-12-22T06:09:20;2.60;;;0.30;;
59306;SDS011;47983;53.016;-2.260;2023-12-22T06:11:49;3.92;;;0.30;;
59306;SDS011;47983;53.016;-2.260;2023-12-22T06:14:17;1.95;;;0.47;;
59306;SDS011;47983;53.016;-2.260;2023-12-22T06:16:44;2.28;;;0.30;;
59306;SDS011;47983;53.016;-2.260;2023-12-22T06:19:13;6.25;;;0.63;;
59306;SDS011;47983;53.016;-2.260;2023-12-22T06:21:41;5.75;;;0.55;;
59306;SDS011;47983;53.016;-2.260;2023-12-22T06:24:08;5.22;;;0.70;;
59306;SDS011;47983;53.016;-2.260;2023-12-22T06:26:37;5.15;;;0.70;;
59306;SDS011;47983;53.016;-2.260;2023-12-22T06:29:05;7.28;;;1.02;;
59306;SDS011;47983;53.016;-2.260;2023-12-22T06:31:33;7.03;;;1.15;;
59306;SDS011;47983;53.016;-2.260;2023-12-22T06:34:01;11.85;;;1.00;;
59306;SDS011;47983;53.016;-2.260;2023-12-22T06:36:30;7.43;;;1.05;;
59306;SDS011;47983;53.016;-2.260;2023-12-22T06:38:58;6.72;;;0.98;;
59306;SDS011;47983;53.016;-2.260;2023-12-22T06:41:30;6.57;;;1.15;;
59306;SDS011;47983;53.016;-2.260;2023-12-22T06:43:58;6.28;;;1.08;;
59306;SDS011;47983;53.016;-2.260;2023-12-22T06:46:30;4.45;;;1.13;;
59306;SDS011;47983;53.016;-2.260;2023-12-22T06:48:58;14.52;;;2.22;;
59306;SDS011;47983;53.016;-2.260;2023-12-22T06:51:30;12.68;;;1.30;;
59306;SDS011;47983;53.016;-2.260;2023-12-22T06:53:59;6.72;;;1.10;;
59306;SDS011;47983;53.016;-2.260;2023-12-22T06:56:32;8.02;;;0.68;;
59306;SDS011;47983;53.016;-2.260;2023-12-22T06:59:02;15.73;;;2.22;;
59306;SDS011;47983;53.016;-2.260;2023-12-22T07:01:32;3.08;;;0.65;;
59306;SDS011;47983;53.016;-2.260;2023-12-22T07:06:29;6.65;;;0.75;;
59306;SDS011;47983;53.016;-2.260;2023-12-22T07:14:16;9.45;;;1.83;;
59306;SDS011;47983;53.016;-2.260;2023-12-22T07:16:44;10.10;;;1.80;;
59306;SDS011;47983;53.016;-2.260;2023-12-22T07:19:13;7.22;;;1.20;;
59306;SDS011;47983;53.016;-2.260;2023-12-22T07:21:41;10.63;;;2.07;;
59306;SDS011;47983;53.016;-2.260;2023-12-22T07:24:13;12.32;;;1.30;;
59306;SDS011;47983;53.016;-2.260;2023-12-22T07:26:42;18.02;;;1.90;;
59306;SDS011;47983;53.016;-2.260;2023-12-22T07:29:12;12.23;;;1.17;;
59306;SDS011;47983;53.016;-2.260;2023-12-22T07:31:41;13.27;;;2.10;;
59306;SDS011;47983;53.016;-2.260;2023-12-22T07:34:09;4.15;;;0.98;;
59306;SDS011;47983;53.016;-2.260;2023-12-22T07:36:36;10.13;;;1.48;;
59306;SDS011;47983;53.016;-2.260;2023-12-22T07:39:17;9.15;;;1.10;;
59306;SDS011;47983;53.016;-2.260;2023-12-22T07:41:45;6.35;;;0.82;;
59306;SDS011;47983;53.016;-2.260;2023-12-22T07:44:13;6.30;;;0.90;;
59306;SDS011;47983;53.016;-2.260;2023-12-22T07:46:41;13.10;;;0.98;;
59306;SDS011;47983;53.016;-2.260;2023-12-22T07:49:09;8.45;;;1.38;;
59306;SDS011;47983;53.016;-2.260;2023-12-22T07:51:38;7.55;;;1.33;;
59306;SDS011;47983;53.016;-2.260;2023-12-22T07:54:08;7.43;;;1.05;;
59306;SDS011;47983;53.016;-2.260;2023-12-22T07:56:36;14.18;;;1.38;;
59306;SDS011;47983;53.016;-2.260;2023-12-22T07:59:03;12.15;;;1.50;;
59306;SDS011;47983;53.016;-2.260;2023-12-22T08:01:49;10.00;;;1.33;;
59306;SDS011;47983;53.016;-2.260;2023-12-22T08:04:17;7.57;;;1.23;;
59306;SDS011;47983;53.016;-2.260;2023-12-22T08:06:46;4.90;;;1.13;;
59306;SDS011;47983;53.016;-2.260;2023-12-22T08:09:14;10.60;;;1.15;;
59306;SDS011;47983;53.016;-2.260;2023-12-22T08:11:41;9.55;;;0.90;;
59306;SDS011;47983;53.016;-2.260;2023-12-22T08:14:09;7.18;;;1.02;;
59306;SDS011;47983;53.016;-2.260;2023-12-22T08:16:37;10.75;;;1.45;;
59306;SDS011;47983;53.016;-2.260;2023-12-22T08:19:05;8.32;;;1.20;;
59306;SDS011;47983;53.016;-2.260;2023-12-22T08:21:33;8.45;;;1.05;;
59306;SDS011;47983;53.016;-2.260;2023-12-22T08:24:12;11.20;;;1.57;;
59306;SDS011;47983;53.016;-2.260;2023-12-22T08:26:49;11.45;;;1.15;;
59306;SDS011;47983;53.016;-2.260;2023-12-22T08:29:18;10.65;;;1.58;;
59306;SDS011;47983;53.016;-2.260;2023-12-22T08:31:47;6.53;;;1.00;;
59306;SDS011;47983;53.016;-2.260;2023-12-22T08:34:15;4.80;;;0.70;;
59306;SDS011;47983;53.016;-2.260;2023-12-22T08:36:43;7.22;;;0.95;;
59306;SDS011;47983;53.016;-2.260;2023-12-22T08:39:12;12.02;;;1.15;;
59306;SDS011;47983;53.016;-2.260;2023-12-22T08:41:40;4.50;;;0.90;;
59306;SDS011;47983;53.016;-2.260;2023-12-22T08:44:09;2.42;;;0.57;;
59306;SDS011;47983;53.016;-2.260;2023-12-22T08:46:37;5.93;;;0.80;;
59306;SDS011;47983;53.016;-2.260;2023-12-22T08:49:05;4.20;;;0.55;;
59306;SDS011;47983;53.016;-2.260;2023-12-22T08:51:34;2.50;;;0.40;;
59306;SDS011;47983;53.016;-2.260;2023-12-22T08:54:02;5.15;;;0.60;;
59306;SDS011;47983;53.016;-2.260;2023-12-22T08:56:32;2.80;;;0.73;;
59306;SDS011;47983;53.016;-2.260;2023-12-22T08:59:02;5.88;;;1.30;;
59306;SDS011;47983;53.016;-2.260;2023-12-22T09:01:30;5.50;;;0.88;;
59306;SDS011;47983;53.016;-2.260;2023-12-22T09:03:58;2.28;;;0.50;;
59306;SDS011;47983;53.016;-2.260;2023-12-22T09:06:27;5.03;;;1.70;;
59306;SDS011;47983;53.016;-2.260;2023-12-22T09:08:54;5.13;;;2.15;;
59306;SDS011;47983;53.016;-2.260;2023-12-22T09:11:22;12.43;;;2.80;;
59306;SDS011;47983;53.016;-2.260;2023-12-22T09:13:50;8.07;;;1.52;;
59306;SDS011;47983;53.016;-2.260;2023-12-22T09:16:21;5.03;;;2.08;;
59306;SDS011;47983;53.016;-2.260;2023-12-22T09:18:50;8.68;;;2.10;;
59306;SDS011;47983;53.016;-2.260;2023-12-22T09:21:19;8.75;;;1.95;;
59306;SDS011;47983;53.016;-2.260;2023-12-22T09:23:47;8.02;;;1.30;;
59306;SDS011;47983;53.016;-2.260;2023-12-22T09:26:15;9.98;;;1.17;;
59306;SDS011;47983;53.016;-2.260;2023-12-22T09:28:45;2.47;;;1.40;;
59306;SDS011;47983;53.016;-2.260;2023-12-22T09:31:13;7.55;;;1.25;;
59306;SDS011;47983;53.016;-2.260;2023-12-22T09:33:42;5.55;;;2.30;;
59306;SDS011;47983;53.016;-2.260;2023-12-22T09:36:10;7.93;;;1.35;;
59306;SDS011;47983;53.016;-2.260;2023-12-22T09:38:39;1.98;;;0.50;;
59306;SDS011;47983;53.016;-2.260;2023-12-22T09:41:09;3.60;;;0.80;;
59306;SDS011;47983;53.016;-2.260;2023-12-22T09:43:37;2.42;;;0.45;;
59306;SDS011;47983;53.016;-2.260;2023-12-22T09:46:07;6.95;;;0.70;;
59306;SDS011;47983;53.016;-2.260;2023-12-22T09:48:36;3.30;;;0.53;;
59306;SDS011;47983;53.016;-2.260;2023-12-22T09:51:07;7.90;;;0.70;;
59306;SDS011;47983;53.016;-2.260;2023-12-22T09:53:35;5.95;;;0.60;;
59306;SDS011;47983;53.016;-2.260;2023-12-22T09:56:06;6.20;;;1.08;;
59306;SDS011;47983;53.016;-2.260;2023-12-22T09:58:35;5.32;;;0.70;;
59306;SDS011;47983;53.016;-2.260;2023-12-22T10:01:05;7.07;;;0.70;;
59306;SDS011;47983;53.016;-2.260;2023-12-22T10:03:35;6.78;;;0.90;;
59306;SDS011;47983;53.016;-2.260;2023-12-22T10:06:04;4.03;;;0.70;;
59306;SDS011;47983;53.016;-2.260;2023-12-22T10:08:33;7.97;;;1.63;;
59306;SDS011;47983;53.016;-2.260;2023-12-22T10:11:01;8.90;;;1.20;;
59306;SDS011;47983;53.016;-2.260;2023-12-22T10:13:32;8.38;;;1.33;;
59306;SDS011;47983;53.016;-2.260;2023-12-22T10:16:03;7.47;;;1.00;;
59306;SDS011;47983;53.016;-2.260;2023-12-22T10:18:33;6.68;;;1.33;;
59306;SDS011;47983;53.016;-2.260;2023-12-22T10:21:01;8.75;;;2.03;;
59306;SDS011;47983;53.016;-2.260;2023-12-22T10:23:29;5.18;;;1.27;;
59306;SDS011;47983;53.016;-2.260;2023-12-22T10:25:58;2.47;;;1.05;;
59306;SDS011;47983;53.016;-2.260;2023-12-22T10:28:28;3.40;;;0.60;;
59306;SDS011;47983;53.016;-2.260;2023-12-22T10:30:57;4.95;;;0.88;;
59306;SDS011;47983;53.016;-2.260;2023-12-22T10:33:31;3.17;;;0.80;;
59306;SDS011;47983;53.016;-2.260;2023-12-22T10:36:00;8.23;;;0.75;;
59306;SDS011;47983;53.016;-2.260;2023-12-22T10:38:36;8.02;;;0.90;;
59306;SDS011;47983;53.016;-2.260;2023-12-22T10:41:05;4.30;;;0.75;;
59306;SDS011;47983;53.016;-2.260;2023-12-22T10:46:06;10.07;;;1.45;;
59306;SDS011;47983;53.016;-2.260;2023-12-22T10:48:39;6.00;;;1.02;;
59306;SDS011;47983;53.016;-2.260;2023-12-22T10:51:09;5.22;;;1.45;;
59306;SDS011;47983;53.016;-2.260;2023-12-22T10:53:40;5.90;;;0.95;;
59306;SDS011;47983;53.016;-2.260;2023-12-22T10:56:10;7.75;;;0.80;;
59306;SDS011;47983;53.016;-2.260;2023-12-22T10:58:38;10.23;;;1.17;;
59306;SDS011;47983;53.016;-2.260;2023-12-22T11:01:08;12.25;;;1.20;;
59306;SDS011;47983;53.016;-2.260;2023-12-22T11:03:39;3.20;;;0.75;;
59306;SDS011;47983;53.016;-2.260;2023-12-22T11:06:12;8.40;;;1.42;;
59306;SDS011;47983;53.016;-2.260;2023-12-22T11:08:43;6.88;;;1.45;;
59306;SDS011;47983;53.016;-2.260;2023-12-22T11:11:16;9.55;;;1.52;;
59306;SDS011;47983;53.016;-2.260;2023-12-22T11:13:52;4.93;;;1.20;;
59306;SDS011;47983;53.016;-2.260;2023-12-22T11:16:23;10.98;;;1.17;;
59306;SDS011;47983;53.016;-2.260;2023-12-22T11:18:55;7.55;;;1.02;;
59306;SDS011;47983;53.016;-2.260;2023-12-22T11:21:24;14.20;;;1.45;;
59306;SDS011;47983;53.016;-2.260;2023-12-22T11:23:53;4.10;;;0.80;;
59306;SDS011;47983;53.016;-2.260;2023-12-22T11:26:22;5.93;;;0.98;;
59306;SDS011;47983;53.016;-2.260;2023-12-22T11:28:51;6.10;;;0.80;;
59306;SDS011;47983;53.016;-2.260;2023-12-22T11:31:19;6.93;;;0.65;;
59306;SDS011;47983;53.016;-2.260;2023-12-22T11:33:48;2.05;;;0.70;;
59306;SDS011;47983;53.016;-2.260;2023-12-22T11:36:31;7.97;;;1.10;;
59306;SDS011;47983;53.016;-2.260;2023-12-22T11:39:03;3.47;;;0.60;;
59306;SDS011;47983;53.016;-2.260;2023-12-22T11:41:32;7.55;;;0.88;;
59306;SDS011;47983;53.016;-2.260;2023-12-22T11:44:03;1.45;;;0.35;;
59306;SDS011;47983;53.016;-2.260;2023-12-22T11:46:33;5.00;;;0.93;;
59306;SDS011;47983;53.016;-2.260;2023-12-22T11:49:03;4.32;;;0.57;;
59306;SDS011;47983;53.016;-2.260;2023-12-22T11:51:32;4.07;;;1.17;;
59306;SDS011;47983;53.016;-2.260;2023-12-22T11:54:03;4.28;;;0.90;;
59306;SDS011;47983;53.016;-2.260;2023-12-22T11:56:51;2.90;;;0.73;;
59306;SDS011;47983;53.016;-2.260;2023-12-22T11:59:19;6.03;;;0.80;;
59306;SDS011;47983;53.016;-2.260;2023-12-22T12:01:54;5.13;;;1.38;;
59306;SDS011;47983;53.016;-2.260;2023-12-22T12:04:23;2.78;;;0.40;;
59306;SDS011;47983;53.016;-2.260;2023-12-22T12:06:51;5.00;;;0.75;;
59306;SDS011;47983;53.016;-2.260;2023-12-22T12:09:18;2.95;;;0.50;;
59306;SDS011;47983;53.016;-2.260;2023-12-22T12:12:13;6.28;;;0.50;;
59306;SDS011;47983;53.016;-2.260;2023-12-22T12:14:41;5.65;;;0.68;;
59306;SDS011;47983;53.016;-2.260;2023-12-22T12:17:10;2.60;;;0.43;;
59306;SDS011;47983;53.016;-2.260;2023-12-22T12:19:38;3.30;;;0.40;;
59306;SDS011;47983;53.016;-2.260;2023-12-22T12:22:11;1.33;;;0.32;;
59306;SDS011;47983;53.016;-2.260;2023-12-22T12:24:41;3.17;;;0.50;;
59306;SDS011;47983;53.016;-2.260;2023-12-22T12:27:09;7.10;;;0.70;;
59306;SDS011;47983;53.016;-2.260;2023-12-22T12:29:38;3.53;;;0.25;;
59306;SDS011;47983;53.016;-2.260;2023-12-22T12:32:07;4.90;;;0.50;;
59306;SDS011;47983;53.016;-2.260;2023-12-22T12:34:35;6.50;;;1.38;;
59306;SDS011;47983;53.016;-2.260;2023-12-22T12:37:04;3.85;;;0.73;;
59306;SDS011;47983;53.016;-2.260;2023-12-22T12:39:34;2.42;;;1.08;;
59306;SDS011;47983;53.016;-2.260;2023-12-22T12:42:02;3.80;;;0.67;;
59306;SDS011;47983;53.016;-2.260;2023-12-22T12:44:35;5.50;;;0.93;;
59306;SDS011;47983;53.016;-2.260;2023-12-22T12:47:11;4.03;;;0.63;;
59306;SDS011;47983;53.016;-2.260;2023-12-22T12:49:40;3.17;;;0.40;;
59306;SDS011;47983;53.016;-2.260;2023-12-22T12:52:14;4.32;;;0.43;;
59306;SDS011;47983;53.016;-2.260;2023-12-22T12:54:43;1.70;;;0.30;;
59306;SDS011;47983;53.016;-2.260;2023-12-22T12:57:15;4.43;;;1.67;;
59306;SDS011;47983;53.016;-2.260;2023-12-22T12:59:45;20.83;;;9.20;;
59306;SDS011;47983;53.016;-2.260;2023-12-22T13:02:17;5.53;;;2.97;;
59306;SDS011;47983;53.016;-2.260;2023-12-22T13:04:46;4.32;;;1.63;;
59306;SDS011;47983;53.016;-2.260;2023-12-22T13:07:23;3.08;;;0.60;;
59306;SDS011;47983;53.016;-2.260;2023-12-22T13:09:52;2.58;;;1.08;;
59306;SDS011;47983;53.016;-2.260;2023-12-22T13:12:24;5.15;;;0.93;;
59306;SDS011;47983;53.016;-2.260;2023-12-22T13:14:53;5.82;;;1.73;;
59306;SDS011;47983;53.016;-2.260;2023-12-22T13:17:21;3.97;;;1.00;;
59306;SDS011;47983;53.016;-2.260;2023-12-22T13:19:49;6.82;;;0.90;;
59306;SDS011;47983;53.016;-2.260;2023-12-22T13:22:17;6.93;;;1.75;;
59306;SDS011;47983;53.016;-2.260;2023-12-22T13:24:58;11.93;;;4.15;;
59306;SDS011;47983;53.016;-2.260;2023-12-22T13:27:26;9.43;;;2.17;;
59306;SDS011;47983;53.016;-2.260;2023-12-22T13:29:54;6.38;;;1.02;;
59306;SDS011;47983;53.016;-2.260;2023-12-22T13:32:22;10.20;;;1.25;;
59306;SDS011;47983;53.016;-2.260;2023-12-22T13:34:57;7.28;;;0.77;;
59306;SDS011;47983;53.016;-2.260;2023-12-22T13:37:24;3.55;;;0.63;;
59306;SDS011;47983;53.016;-2.260;2023-12-22T13:39:58;3.58;;;0.70;;
59306;SDS011;47983;53.016;-2.260;2023-12-22T13:42:26;5.45;;;1.30;;
59306;SDS011;47983;53.016;-2.260;2023-12-22T13:44:54;6.28;;;1.05;;
59306;SDS011;47983;53.016;-2.260;2023-12-22T13:47:23;7.40;;;1.20;;
59306;SDS011;47983;53.016;-2.260;2023-12-22T13:49:55;4.18;;;0.70;;
59306;SDS011;47983;53.016;-2.260;2023-12-22T13:55:00;7.20;;;1.02;;
59306;SDS011;47983;53.016;-2.260;2023-12-22T13:57:30;1.40;;;0.68;;
59306;SDS011;47983;53.016;-2.260;2023-12-22T13:59:59;3.40;;;0.73;;
59306;SDS011;47983;53.016;-2.260;2023-12-22T14:02:30;4.82;;;0.82;;
59306;SDS011;47983;53.016;-2.260;2023-12-22T14:04:58;4.97;;;0.63;;
59306;SDS011;47983;53.016;-2.260;2023-12-22T14:07:26;5.45;;;1.00;;
59306;SDS011;47983;53.016;-2.260;2023-12-22T14:09:54;8.23;;;0.80;;
59306;SDS011;47983;53.016;-2.260;2023-12-22T14:12:21;5.60;;;0.93;;
59306;SDS011;47983;53.016;-2.260;2023-12-22T14:14:58;3.92;;;1.00;;
59306;SDS011;47983;53.016;-2.260;2023-12-22T14:17:26;8.63;;;0.90;;
59306;SDS011;47983;53.016;-2.260;2023-12-22T14:19:57;2.42;;;0.90;;
59306;SDS011;47983;53.016;-2.260;2023-12-22T14:22:26;7.07;;;0.95;;
59306;SDS011;47983;53.016;-2.260;2023-12-22T14:24:54;6.53;;;0.80;;
59306;SDS011;47983;53.016;-2.260;2023-12-22T14:27:23;10.10;;;1.37;;
59306;SDS011;47983;53.016;-2.260;2023-12-22T14:29:51;3.65;;;0.88;;
59306;SDS011;47983;53.016;-2.260;2023-12-22T14:32:19;2.75;;;0.63;;
59306;SDS011;47983;53.016;-2.260;2023-12-22T14:34:47;6.82;;;0.85;;
59306;SDS011;47983;53.016;-2.260;2023-12-22T14:37:16;6.03;;;0.80;;
59306;SDS011;47983;53.016;-2.260;2023-12-22T14:39:45;8.10;;;0.60;;
59306;SDS011;47983;53.016;-2.260;2023-12-22T14:42:12;9.88;;;1.23;;
59306;SDS011;47983;53.016;-2.260;2023-12-22T14:44:41;7.60;;;1.05;;
59306;SDS011;47983;53.016;-2.260;2023-12-22T14:47:10;8.05;;;0.80;;
59306;SDS011;47983;53.016;-2.260;2023-12-22T14:49:40;10.65;;;1.08;;
59306;SDS011;47983;53.016;-2.260;2023-12-22T14:52:08;6.10;;;0.70;;
59306;SDS011;47983;53.016;-2.260;2023-12-22T14:54:37;4.30;;;0.45;;
59306;SDS011;47983;53.016;-2.260;2023-12-22T14:57:05;2.92;;;0.60;;
59306;SDS011;47983;53.016;-2.260;2023-12-22T14:59:34;3.30;;;0.57;;
59306;SDS011;47983;53.016;-2.260;2023-12-22T15:02:02;4.80;;;0.57;;
59306;SDS011;47983;53.016;-2.260;2023-12-22T15:04:31;4.45;;;0.73;;